BMI18Y EGCC-EGAC
Flight info
| Callsign | BMI18Y |
|---|---|
| Flight time | 1h 4m |
| Altitude | 24000 |
| Route | EKLAD Y53 WAL M146 ERDUV Z198 MASOP M148 MAGEE |
| Aircraft | B733/M-SDE2E3FHIRW/S |
Departure
| Time | 2026-05-04 19:38 |
|---|---|
| Airport | Manchester Airport (EGCC) |
Arrival
| Time | 2026-05-04 20:42 |
|---|---|
| Airport | George Best Belfast City Airport (EGAC) |
| Time | Latitude | Longitude | Altitude | Speed | Heading |
|---|---|---|---|---|---|
| 2026-05-04 19:04 | 53.36092 | -2.26810 | 252 ft | 0 kts | 326° |
| 2026-05-04 19:05 | 53.36089 | -2.26796 | 252 ft | 0 kts | 326° |
| 2026-05-04 19:25 | 53.36087 | -2.26793 | 252 ft | 1 kts | 319° |
| 2026-05-04 19:26 | 53.36076 | -2.26777 | 253 ft | 2 kts | 318° |
| 2026-05-04 19:26 | 53.36064 | -2.26760 | 253 ft | 2 kts | 319° |
| 2026-05-04 19:26 | 53.36053 | -2.26745 | 253 ft | 2 kts | 344° |
| 2026-05-04 19:26 | 53.36038 | -2.26743 | 253 ft | 2 kts | 11° |
| 2026-05-04 19:27 | 53.36024 | -2.26752 | 253 ft | 2 kts | 40° |
| 2026-05-04 19:27 | 53.36019 | -2.26760 | 253 ft | 1 kts | 53° |
| 2026-05-04 19:27 | 53.36017 | -2.26765 | 253 ft | 0 kts | 49° |
| 2026-05-04 19:33 | 53.36018 | -2.26762 | 253 ft | 0 kts | 49° |
| 2026-05-04 19:33 | 53.36023 | -2.26753 | 253 ft | 1 kts | 49° |
| 2026-05-04 19:33 | 53.36031 | -2.26738 | 253 ft | 2 kts | 49° |
| 2026-05-04 19:33 | 53.36048 | -2.26705 | 254 ft | 4 kts | 49° |
| 2026-05-04 19:34 | 53.36062 | -2.26643 | 254 ft | 6 kts | 88° |
| 2026-05-04 19:34 | 53.36046 | -2.26560 | 254 ft | 8 kts | 105° |
| 2026-05-04 19:34 | 53.36068 | -2.26471 | 255 ft | 8 kts | 50° |
| 2026-05-04 19:34 | 53.36108 | -2.26389 | 255 ft | 9 kts | 51° |
| 2026-05-04 19:35 | 53.36146 | -2.26298 | 255 ft | 9 kts | 78° |
| 2026-05-04 19:35 | 53.36141 | -2.26257 | 255 ft | 10 kts | 120° |
| 2026-05-04 19:35 | 53.36100 | -2.26194 | 256 ft | 10 kts | 141° |
| 2026-05-04 19:36 | 53.36037 | -2.26148 | 256 ft | 10 kts | 188° |
| 2026-05-04 19:36 | 53.35993 | -2.26211 | 256 ft | 0 kts | 231° |
| 2026-05-04 19:37 | 53.35970 | -2.26261 | 256 ft | 21 kts | 234° |
| 2026-05-04 19:37 | 53.35732 | -2.26751 | 255 ft | 87 kts | 231° |
| 2026-05-04 19:37 | 53.35220 | -2.27815 | 235 ft | 145 kts | 232° |
| 2026-05-04 19:38 | 53.34518 | -2.29230 | 534 ft | 158 kts | 233° |
| 2026-05-04 19:38 | 53.33798 | -2.30611 | 1043 ft | 163 kts | 233° |
| 2026-05-04 19:38 | 53.33065 | -2.32097 | 1515 ft | 171 kts | 235° |
| 2026-05-04 19:38 | 53.32285 | -2.33784 | 1692 ft | 198 kts | 238° |
| 2026-05-04 19:39 | 53.31591 | -2.35874 | 1968 ft | 210 kts | 256° |
| 2026-05-04 19:39 | 53.30956 | -2.38137 | 2453 ft | 219 kts | 241° |
| 2026-05-04 19:39 | 53.30379 | -2.40462 | 2860 ft | 223 kts | 262° |
| 2026-05-04 19:39 | 53.30084 | -2.43141 | 3037 ft | 247 kts | 262° |
| 2026-05-04 19:40 | 53.29751 | -2.46070 | 2989 ft | 258 kts | 261° |
| 2026-05-04 19:40 | 53.29408 | -2.49017 | 3205 ft | 262 kts | 261° |
| 2026-05-04 19:40 | 53.29057 | -2.52018 | 3982 ft | 264 kts | 261° |
| 2026-05-04 19:40 | 53.28704 | -2.55003 | 4793 ft | 264 kts | 261° |
| 2026-05-04 19:41 | 53.28347 | -2.58009 | 5581 ft | 266 kts | 261° |
| 2026-05-04 19:41 | 53.27985 | -2.61048 | 6348 ft | 268 kts | 261° |
| 2026-05-04 19:41 | 53.27624 | -2.64062 | 7085 ft | 270 kts | 260° |
| 2026-05-04 19:41 | 53.27251 | -2.67164 | 7759 ft | 275 kts | 259° |
| 2026-05-04 19:42 | 53.26868 | -2.70337 | 8487 ft | 278 kts | 259° |
| 2026-05-04 19:42 | 53.26488 | -2.73475 | 9199 ft | 281 kts | 259° |
| 2026-05-04 19:42 | 53.26102 | -2.76650 | 9909 ft | 284 kts | 259° |
| 2026-05-04 19:42 | 53.25789 | -2.79986 | 10360 ft | 297 kts | 270° |
| 2026-05-04 19:43 | 53.26136 | -2.83449 | 10476 ft | 319 kts | 291° |
| 2026-05-04 19:43 | 53.27273 | -2.86707 | 10940 ft | 330 kts | 307° |
| 2026-05-04 19:43 | 53.28676 | -2.89811 | 11613 ft | 335 kts | 306° |
| 2026-05-04 19:43 | 53.30061 | -2.92898 | 12321 ft | 338 kts | 306° |
| 2026-05-04 19:44 | 53.31493 | -2.96101 | 13024 ft | 343 kts | 306° |
| 2026-05-04 19:44 | 53.32906 | -2.99263 | 13704 ft | 347 kts | 306° |
| 2026-05-04 19:44 | 53.34359 | -3.02524 | 14402 ft | 350 kts | 306° |
| 2026-05-04 19:44 | 53.35808 | -3.05777 | 15093 ft | 354 kts | 306° |
| 2026-05-04 19:45 | 53.37292 | -3.09115 | 15783 ft | 358 kts | 306° |
| 2026-05-04 19:45 | 53.38785 | -3.12472 | 16470 ft | 362 kts | 306° |
| 2026-05-04 19:45 | 53.40442 | -3.15621 | 17122 ft | 366 kts | 314° |
| 2026-05-04 19:45 | 53.42252 | -3.18665 | 17791 ft | 370 kts | 314° |
| 2026-05-04 19:46 | 53.44063 | -3.21724 | 18432 ft | 373 kts | 314° |
| 2026-05-04 19:46 | 53.45903 | -3.24849 | 19061 ft | 377 kts | 314° |
| 2026-05-04 19:46 | 53.47733 | -3.27968 | 19705 ft | 379 kts | 314° |
| 2026-05-04 19:46 | 53.49566 | -3.31096 | 20316 ft | 382 kts | 314° |
| 2026-05-04 19:47 | 53.51418 | -3.34263 | 20916 ft | 385 kts | 314° |
| 2026-05-04 19:47 | 53.53301 | -3.37490 | 21471 ft | 388 kts | 314° |
| 2026-05-04 19:47 | 53.55204 | -3.40753 | 22032 ft | 391 kts | 315° |
| 2026-05-04 19:47 | 53.57099 | -3.44008 | 22599 ft | 393 kts | 314° |
| 2026-05-04 19:48 | 53.58857 | -3.47533 | 23126 ft | 396 kts | 306° |
| 2026-05-04 19:48 | 53.60428 | -3.51318 | 23598 ft | 401 kts | 306° |
| 2026-05-04 19:48 | 53.62023 | -3.55167 | 23938 ft | 405 kts | 306° |
| 2026-05-04 19:48 | 53.63648 | -3.59060 | 24057 ft | 402 kts | 307° |
| 2026-05-04 19:49 | 53.65251 | -3.62887 | 24051 ft | 402 kts | 306° |
| 2026-05-04 19:49 | 53.66861 | -3.66743 | 24027 ft | 401 kts | 306° |
| 2026-05-04 19:49 | 53.68476 | -3.70620 | 24032 ft | 401 kts | 306° |
| 2026-05-04 19:49 | 53.70076 | -3.74457 | 24037 ft | 402 kts | 306° |
| 2026-05-04 19:50 | 53.71681 | -3.78307 | 24041 ft | 401 kts | 306° |
| 2026-05-04 19:50 | 53.73284 | -3.82156 | 24038 ft | 402 kts | 306° |
| 2026-05-04 19:50 | 53.74866 | -3.85959 | 24040 ft | 402 kts | 306° |
| 2026-05-04 19:50 | 53.76483 | -3.89852 | 24039 ft | 401 kts | 306° |
| 2026-05-04 19:51 | 53.78090 | -3.93728 | 24039 ft | 402 kts | 306° |
| 2026-05-04 19:51 | 53.79686 | -3.97581 | 24039 ft | 402 kts | 306° |
| 2026-05-04 19:51 | 53.81283 | -4.01443 | 24040 ft | 401 kts | 306° |
| 2026-05-04 19:51 | 53.82872 | -4.05293 | 24038 ft | 401 kts | 306° |
| 2026-05-04 19:52 | 53.84462 | -4.09149 | 24043 ft | 401 kts | 306° |
| 2026-05-04 19:52 | 53.86047 | -4.12999 | 24051 ft | 401 kts | 306° |
| 2026-05-04 19:52 | 53.87737 | -4.16749 | 24031 ft | 399 kts | 317° |
| 2026-05-04 19:52 | 53.90007 | -4.19305 | 24047 ft | 398 kts | 339° |
| 2026-05-04 19:53 | 53.92641 | -4.20720 | 24045 ft | 399 kts | 343° |
| 2026-05-04 19:53 | 53.95291 | -4.22172 | 24041 ft | 399 kts | 341° |
| 2026-05-04 19:53 | 53.97906 | -4.23766 | 24034 ft | 399 kts | 340° |
| 2026-05-04 19:53 | 54.00486 | -4.25416 | 24034 ft | 398 kts | 339° |
| 2026-05-04 19:54 | 54.03081 | -4.27112 | 24037 ft | 399 kts | 339° |
| 2026-05-04 19:54 | 54.05659 | -4.28812 | 24035 ft | 398 kts | 339° |
| 2026-05-04 19:54 | 54.08224 | -4.30513 | 24035 ft | 398 kts | 339° |
| 2026-05-04 19:54 | 54.10728 | -4.32177 | 24017 ft | 398 kts | 339° |
| 2026-05-04 19:55 | 54.13419 | -4.33961 | 24025 ft | 397 kts | 339° |
| 2026-05-04 19:55 | 54.15881 | -4.35977 | 24011 ft | 396 kts | 324° |
| 2026-05-04 19:55 | 54.17769 | -4.39378 | 24068 ft | 393 kts | 303° |
| 2026-05-04 19:55 | 54.19150 | -4.43300 | 24060 ft | 377 kts | 302° |
| 2026-05-04 19:56 | 54.20522 | -4.47024 | 24038 ft | 374 kts | 304° |
| 2026-05-04 19:56 | 54.21977 | -4.50751 | 24028 ft | 374 kts | 305° |
| 2026-05-04 19:56 | 54.23443 | -4.54409 | 24034 ft | 371 kts | 306° |
| 2026-05-04 19:56 | 54.24869 | -4.57939 | 24064 ft | 357 kts | 306° |
| 2026-05-04 19:57 | 54.26275 | -4.61404 | 24038 ft | 355 kts | 306° |
| 2026-05-04 19:57 | 54.27692 | -4.64889 | 24027 ft | 356 kts | 306° |
| 2026-05-04 19:57 | 54.29108 | -4.68380 | 24020 ft | 355 kts | 305° |
| 2026-05-04 19:57 | 54.30500 | -4.71815 | 24039 ft | 353 kts | 306° |
| 2026-05-04 19:58 | 54.31908 | -4.75278 | 24032 ft | 354 kts | 305° |
| 2026-05-04 19:58 | 54.33324 | -4.78770 | 24035 ft | 354 kts | 305° |
| 2026-05-04 19:58 | 54.34728 | -4.82239 | 24037 ft | 353 kts | 305° |
| 2026-05-04 19:58 | 54.36121 | -4.85688 | 24038 ft | 351 kts | 305° |
| 2026-05-04 19:59 | 54.37515 | -4.89143 | 24029 ft | 353 kts | 305° |
| 2026-05-04 19:59 | 54.38907 | -4.92600 | 24032 ft | 353 kts | 305° |
| 2026-05-04 19:59 | 54.40293 | -4.96047 | 24038 ft | 351 kts | 305° |
| 2026-05-04 19:59 | 54.41685 | -4.99509 | 24028 ft | 351 kts | 305° |
| 2026-05-04 20:00 | 54.43075 | -5.02973 | 24036 ft | 351 kts | 305° |
| 2026-05-04 20:00 | 54.44456 | -5.06415 | 24035 ft | 350 kts | 305° |
| 2026-05-04 20:00 | 54.45854 | -5.09873 | 24032 ft | 350 kts | 305° |
| 2026-05-04 20:00 | 54.47255 | -5.13335 | 24028 ft | 351 kts | 305° |
| 2026-05-04 20:01 | 54.48636 | -5.16748 | 24033 ft | 350 kts | 305° |
| 2026-05-04 20:01 | 54.50036 | -5.20212 | 24035 ft | 350 kts | 305° |
| 2026-05-04 20:01 | 54.51047 | -5.22409 | 24010 ft | 349 kts | 316° |
| 2026-05-04 20:01 | 54.53543 | -5.25929 | 23222 ft | 350 kts | 322° |
| 2026-05-04 20:02 | 54.55477 | -5.28480 | 22440 ft | 354 kts | 322° |
| 2026-05-04 20:02 | 54.57417 | -5.31075 | 21706 ft | 357 kts | 321° |
| 2026-05-04 20:02 | 54.59359 | -5.33696 | 21010 ft | 358 kts | 321° |
| 2026-05-04 20:02 | 54.61320 | -5.36325 | 20300 ft | 359 kts | 324° |
| 2026-05-04 20:03 | 54.63567 | -5.38178 | 19516 ft | 363 kts | 345° |
| 2026-05-04 20:03 | 54.66067 | -5.38553 | 18743 ft | 368 kts | 5° |
| 2026-05-04 20:03 | 54.68536 | -5.37384 | 17933 ft | 374 kts | 25° |
| 2026-05-04 20:03 | 54.70811 | -5.35204 | 17126 ft | 378 kts | 29° |
| 2026-05-04 20:04 | 54.73038 | -5.32917 | 16334 ft | 379 kts | 29° |
| 2026-05-04 20:04 | 54.75294 | -5.30592 | 15540 ft | 380 kts | 29° |
| 2026-05-04 20:04 | 54.77564 | -5.28243 | 14701 ft | 382 kts | 29° |
| 2026-05-04 20:04 | 54.79835 | -5.25890 | 13843 ft | 384 kts | 29° |
| 2026-05-04 20:05 | 54.82144 | -5.23495 | 12977 ft | 385 kts | 29° |
| 2026-05-04 20:05 | 54.84430 | -5.21120 | 12133 ft | 384 kts | 29° |
| 2026-05-04 20:05 | 54.86686 | -5.18769 | 11399 ft | 380 kts | 29° |
| 2026-05-04 20:05 | 54.88898 | -5.16460 | 11120 ft | 361 kts | 29° |
| 2026-05-04 20:06 | 54.90987 | -5.14264 | 10953 ft | 341 kts | 29° |
| 2026-05-04 20:06 | 54.92959 | -5.12178 | 10752 ft | 323 kts | 29° |
| 2026-05-04 20:06 | 54.94830 | -5.10190 | 10555 ft | 308 kts | 29° |
| 2026-05-04 20:06 | 54.96446 | -5.07908 | 10352 ft | 297 kts | 50° |
| 2026-05-04 20:07 | 54.97351 | -5.04775 | 10171 ft | 291 kts | 76° |
| 2026-05-04 20:07 | 54.97377 | -5.01354 | 10006 ft | 282 kts | 104° |
| 2026-05-04 20:07 | 54.96527 | -4.98407 | 10013 ft | 264 kts | 134° |
| 2026-05-04 20:07 | 54.95087 | -4.96650 | 10022 ft | 246 kts | 165° |
| 2026-05-04 20:08 | 54.93389 | -4.96406 | 10011 ft | 250 kts | 200° |
| 2026-05-04 20:08 | 54.91722 | -4.97589 | 10050 ft | 273 kts | 206° |
| 2026-05-04 20:08 | 54.89953 | -4.98873 | 9988 ft | 275 kts | 204° |
| 2026-05-04 20:08 | 54.88155 | -5.00074 | 10001 ft | 277 kts | 203° |
| 2026-05-04 20:09 | 54.86338 | -5.01230 | 10017 ft | 279 kts | 202° |
| 2026-05-04 20:09 | 54.84529 | -5.02344 | 10029 ft | 279 kts | 202° |
| 2026-05-04 20:09 | 54.82691 | -5.03451 | 10029 ft | 279 kts | 201° |
| 2026-05-04 20:09 | 54.80834 | -5.04556 | 10029 ft | 279 kts | 201° |
| 2026-05-04 20:10 | 54.78996 | -5.05639 | 10026 ft | 279 kts | 201° |
| 2026-05-04 20:10 | 54.77163 | -5.06713 | 10027 ft | 279 kts | 201° |
| 2026-05-04 20:10 | 54.75326 | -5.07785 | 10027 ft | 279 kts | 201° |
| 2026-05-04 20:10 | 54.73499 | -5.08850 | 10026 ft | 279 kts | 201° |
| 2026-05-04 20:11 | 54.71667 | -5.09914 | 10028 ft | 279 kts | 201° |
| 2026-05-04 20:11 | 54.69807 | -5.10992 | 10035 ft | 279 kts | 201° |
| 2026-05-04 20:11 | 54.67967 | -5.12059 | 10033 ft | 279 kts | 201° |
| 2026-05-04 20:11 | 54.66154 | -5.13108 | 10031 ft | 279 kts | 201° |
| 2026-05-04 20:12 | 54.64314 | -5.14170 | 10023 ft | 279 kts | 201° |
| 2026-05-04 20:12 | 54.62452 | -5.15246 | 10022 ft | 279 kts | 201° |
| 2026-05-04 20:12 | 54.60626 | -5.16339 | 10014 ft | 278 kts | 207° |
| 2026-05-04 20:12 | 54.59073 | -5.18235 | 10028 ft | 273 kts | 227° |
| 2026-05-04 20:13 | 54.57761 | -5.20561 | 10017 ft | 274 kts | 229° |
| 2026-05-04 20:13 | 54.56449 | -5.22938 | 10038 ft | 274 kts | 229° |
| 2026-05-04 20:13 | 54.55139 | -5.25309 | 10039 ft | 274 kts | 229° |
| 2026-05-04 20:13 | 54.53828 | -5.27682 | 10030 ft | 273 kts | 229° |
| 2026-05-04 20:14 | 54.52524 | -5.30040 | 10022 ft | 273 kts | 229° |
| 2026-05-04 20:14 | 54.51211 | -5.32418 | 10022 ft | 273 kts | 229° |
| 2026-05-04 20:14 | 54.49910 | -5.34770 | 10030 ft | 273 kts | 229° |
| 2026-05-04 20:14 | 54.48596 | -5.37147 | 10023 ft | 273 kts | 229° |
| 2026-05-04 20:15 | 54.47289 | -5.39509 | 10026 ft | 273 kts | 229° |
| 2026-05-04 20:15 | 54.45974 | -5.41878 | 10029 ft | 273 kts | 229° |
| 2026-05-04 20:15 | 54.44668 | -5.44228 | 10025 ft | 273 kts | 229° |
| 2026-05-04 20:15 | 54.43346 | -5.46611 | 10020 ft | 273 kts | 229° |
| 2026-05-04 20:16 | 54.42052 | -5.48945 | 10026 ft | 273 kts | 229° |
| 2026-05-04 20:16 | 54.40739 | -5.51308 | 10026 ft | 273 kts | 229° |
| 2026-05-04 20:16 | 54.39426 | -5.53669 | 10028 ft | 273 kts | 229° |
| 2026-05-04 20:16 | 54.38112 | -5.56027 | 10010 ft | 268 kts | 229° |
| 2026-05-04 20:17 | 54.36856 | -5.58277 | 9896 ft | 257 kts | 229° |
| 2026-05-04 20:17 | 54.35641 | -5.60442 | 9649 ft | 251 kts | 229° |
| 2026-05-04 20:17 | 54.34439 | -5.62588 | 9316 ft | 249 kts | 229° |
| 2026-05-04 20:17 | 54.33243 | -5.64726 | 8969 ft | 248 kts | 229° |
| 2026-05-04 20:18 | 54.32063 | -5.66838 | 8613 ft | 248 kts | 229° |
| 2026-05-04 20:18 | 54.30867 | -5.68986 | 8273 ft | 246 kts | 229° |
| 2026-05-04 20:18 | 54.29710 | -5.71065 | 8058 ft | 240 kts | 229° |
| 2026-05-04 20:18 | 54.28581 | -5.73084 | 8021 ft | 223 kts | 229° |
| 2026-05-04 20:19 | 54.27522 | -5.74969 | 8029 ft | 226 kts | 229° |
| 2026-05-04 20:19 | 54.26423 | -5.76929 | 8042 ft | 225 kts | 229° |
| 2026-05-04 20:19 | 54.25344 | -5.78852 | 8039 ft | 224 kts | 229° |
| 2026-05-04 20:19 | 54.24267 | -5.80769 | 8024 ft | 224 kts | 229° |
| 2026-05-04 20:20 | 54.23200 | -5.82669 | 7950 ft | 221 kts | 229° |
| 2026-05-04 20:20 | 54.22136 | -5.84561 | 7547 ft | 222 kts | 229° |
| 2026-05-04 20:20 | 54.21084 | -5.86456 | 7188 ft | 221 kts | 232° |
| 2026-05-04 20:20 | 54.20435 | -5.88753 | 6776 ft | 216 kts | 265° |
| 2026-05-04 20:21 | 54.20660 | -5.91229 | 6382 ft | 212 kts | 300° |
| 2026-05-04 20:21 | 54.21656 | -5.93020 | 6049 ft | 208 kts | 328° |
| 2026-05-04 20:21 | 54.24123 | -5.95543 | 5913 ft | 208 kts | 329° |
| 2026-05-04 20:22 | 54.25374 | -5.96803 | 5939 ft | 210 kts | 328° |
| 2026-05-04 20:22 | 54.26620 | -5.98058 | 5949 ft | 210 kts | 329° |
| 2026-05-04 20:22 | 54.27879 | -5.99326 | 5688 ft | 208 kts | 329° |
| 2026-05-04 20:22 | 54.29106 | -6.00563 | 5388 ft | 205 kts | 329° |
| 2026-05-04 20:23 | 54.30342 | -6.01813 | 5049 ft | 204 kts | 329° |
| 2026-05-04 20:23 | 54.31525 | -6.03011 | 4907 ft | 193 kts | 329° |
| 2026-05-04 20:23 | 54.32657 | -6.04158 | 4703 ft | 187 kts | 329° |
| 2026-05-04 20:23 | 54.33765 | -6.05281 | 4448 ft | 185 kts | 329° |
| 2026-05-04 20:24 | 54.34872 | -6.06407 | 4171 ft | 183 kts | 328° |
| 2026-05-04 20:24 | 54.35977 | -6.07430 | 3923 ft | 181 kts | 342° |
| 2026-05-04 20:24 | 54.37232 | -6.07502 | 3611 ft | 184 kts | 8° |
| 2026-05-04 20:24 | 54.38500 | -6.07095 | 3264 ft | 188 kts | 8° |
| 2026-05-04 20:25 | 54.39782 | -6.06655 | 3018 ft | 184 kts | 8° |
| 2026-05-04 20:25 | 54.41005 | -6.06221 | 2943 ft | 183 kts | 8° |
| 2026-05-04 20:25 | 54.42269 | -6.05771 | 2932 ft | 184 kts | 8° |
| 2026-05-04 20:25 | 54.43534 | -6.05320 | 2934 ft | 185 kts | 8° |
| 2026-05-04 20:26 | 54.44799 | -6.04868 | 2943 ft | 186 kts | 8° |
| 2026-05-04 20:26 | 54.46066 | -6.04419 | 2950 ft | 186 kts | 8° |
| 2026-05-04 20:26 | 54.47325 | -6.03959 | 2951 ft | 187 kts | 12° |
| 2026-05-04 20:26 | 54.48517 | -6.02979 | 2964 ft | 188 kts | 27° |
| 2026-05-04 20:27 | 54.49639 | -6.01769 | 2910 ft | 192 kts | 30° |
| 2026-05-04 20:27 | 54.50742 | -6.00472 | 2646 ft | 193 kts | 32° |
| 2026-05-04 20:27 | 54.51846 | -5.99134 | 2309 ft | 190 kts | 32° |
| 2026-05-04 20:27 | 54.52896 | -5.97866 | 2022 ft | 179 kts | 31° |
| 2026-05-04 20:28 | 54.53881 | -5.96680 | 1828 ft | 162 kts | 31° |
| 2026-05-04 20:28 | 54.54811 | -5.95573 | 1613 ft | 165 kts | 30° |
| 2026-05-04 20:28 | 54.55746 | -5.94469 | 1353 ft | 160 kts | 30° |
| 2026-05-04 20:28 | 54.56656 | -5.93396 | 1153 ft | 153 kts | 31° |
| 2026-05-04 20:29 | 54.57490 | -5.92410 | 918 ft | 140 kts | 31° |
| 2026-05-04 20:29 | 54.58314 | -5.91426 | 748 ft | 142 kts | 32° |
| 2026-05-04 20:29 | 54.59132 | -5.90450 | 558 ft | 145 kts | 32° |
| 2026-05-04 20:29 | 54.59945 | -5.89490 | 353 ft | 142 kts | 32° |
| 2026-05-04 20:30 | 54.60757 | -5.88516 | 495 ft | 135 kts | 33° |
| 2026-05-04 20:30 | 54.61521 | -5.87540 | 594 ft | 156 kts | 35° |
| 2026-05-04 20:30 | 54.62497 | -5.86285 | 1284 ft | 187 kts | 32° |
| 2026-05-04 20:30 | 54.63582 | -5.84946 | 2324 ft | 202 kts | 31° |
| 2026-05-04 20:31 | 54.64763 | -5.83544 | 2828 ft | 205 kts | 31° |
| 2026-05-04 20:31 | 54.65970 | -5.82094 | 2927 ft | 213 kts | 32° |
| 2026-05-04 20:31 | 54.67042 | -5.80356 | 2964 ft | 216 kts | 58° |
| 2026-05-04 20:31 | 54.67428 | -5.77841 | 2984 ft | 223 kts | 92° |
| 2026-05-04 20:32 | 54.66914 | -5.75276 | 2968 ft | 233 kts | 128° |
| 2026-05-04 20:32 | 54.65622 | -5.73530 | 2923 ft | 238 kts | 161° |
| 2026-05-04 20:32 | 54.64003 | -5.73180 | 2938 ft | 235 kts | 187° |
| 2026-05-04 20:32 | 54.62363 | -5.73486 | 2954 ft | 237 kts | 188° |
| 2026-05-04 20:33 | 54.60681 | -5.73831 | 2960 ft | 257 kts | 188° |
| 2026-05-04 20:33 | 54.58873 | -5.74206 | 2955 ft | 260 kts | 188° |
| 2026-05-04 20:33 | 54.57085 | -5.74688 | 2934 ft | 258 kts | 200° |
| 2026-05-04 20:33 | 54.55484 | -5.76086 | 2951 ft | 257 kts | 213° |
| 2026-05-04 20:34 | 54.53956 | -5.77686 | 2966 ft | 258 kts | 213° |
| 2026-05-04 20:34 | 54.52427 | -5.79296 | 2967 ft | 258 kts | 213° |
| 2026-05-04 20:34 | 54.50879 | -5.80920 | 2961 ft | 258 kts | 213° |
| 2026-05-04 20:34 | 54.49353 | -5.82522 | 2957 ft | 258 kts | 213° |
| 2026-05-04 20:35 | 54.47812 | -5.84136 | 2961 ft | 258 kts | 213° |
| 2026-05-04 20:35 | 54.46276 | -5.85742 | 2957 ft | 258 kts | 213° |
| 2026-05-04 20:35 | 54.44740 | -5.87351 | 2959 ft | 257 kts | 214° |
| 2026-05-04 20:35 | 54.43215 | -5.88951 | 2950 ft | 257 kts | 215° |
| 2026-05-04 20:36 | 54.41948 | -5.91063 | 2936 ft | 252 kts | 243° |
| 2026-05-04 20:36 | 54.41457 | -5.93867 | 2949 ft | 248 kts | 272° |
| 2026-05-04 20:36 | 54.41850 | -5.96712 | 2952 ft | 245 kts | 301° |
| 2026-05-04 20:36 | 54.42823 | -5.99033 | 2947 ft | 234 kts | 308° |
| 2026-05-04 20:37 | 54.43883 | -6.01065 | 2854 ft | 223 kts | 324° |
| 2026-05-04 20:37 | 54.45222 | -6.02194 | 2477 ft | 209 kts | 338° |
| 2026-05-04 20:37 | 54.46550 | -6.03054 | 2075 ft | 195 kts | 338° |
| 2026-05-04 20:37 | 54.47776 | -6.03718 | 1892 ft | 174 kts | 355° |
| 2026-05-04 20:38 | 54.48847 | -6.03305 | 1916 ft | 151 kts | 23° |
| 2026-05-04 20:38 | 54.49732 | -6.02293 | 2086 ft | 145 kts | 34° |
| 2026-05-04 20:38 | 54.50549 | -6.01088 | 2132 ft | 156 kts | 37° |
| 2026-05-04 20:38 | 54.51358 | -5.99894 | 2047 ft | 154 kts | 35° |
| 2026-05-04 20:39 | 54.52187 | -5.98763 | 1963 ft | 151 kts | 33° |
| 2026-05-04 20:39 | 54.53025 | -5.97701 | 1954 ft | 149 kts | 31° |
| 2026-05-04 20:39 | 54.53877 | -5.96671 | 1847 ft | 148 kts | 30° |
| 2026-05-04 20:39 | 54.54726 | -5.95672 | 1616 ft | 148 kts | 30° |
| 2026-05-04 20:40 | 54.55575 | -5.94676 | 1393 ft | 146 kts | 31° |
| 2026-05-04 20:40 | 54.56409 | -5.93690 | 1204 ft | 143 kts | 31° |
| 2026-05-04 20:40 | 54.57218 | -5.92729 | 999 ft | 139 kts | 31° |
| 2026-05-04 20:40 | 54.58017 | -5.91781 | 859 ft | 141 kts | 31° |
| 2026-05-04 20:41 | 54.58820 | -5.90839 | 719 ft | 137 kts | 32° |
| 2026-05-04 20:41 | 54.59612 | -5.89882 | 483 ft | 134 kts | 32° |
| 2026-05-04 20:41 | 54.60348 | -5.88990 | 275 ft | 129 kts | 33° |
| 2026-05-04 20:41 | 54.61109 | -5.88084 | 90 ft | 132 kts | 33° |
| 2026-05-04 20:42 | 54.61822 | -5.87245 | 18 ft | 102 kts | 34° |
| 2026-05-04 20:42 | 54.62214 | -5.86772 | 17 ft | 40 kts | 36° |
| 2026-05-04 20:42 | 54.62399 | -5.86551 | 17 ft | 20 kts | 23° |
| 2026-05-04 20:42 | 54.62429 | -5.86521 | 17 ft | 7 kts | 172° |
| 2026-05-04 20:43 | 54.62362 | -5.86582 | 17 ft | 14 kts | 216° |
| 2026-05-04 20:43 | 54.62268 | -5.86702 | 17 ft | 17 kts | 217° |
| 2026-05-04 20:43 | 54.62165 | -5.86824 | 17 ft | 18 kts | 214° |
| 2026-05-04 20:43 | 54.62056 | -5.86954 | 17 ft | 19 kts | 214° |
| 2026-05-04 20:44 | 54.61940 | -5.87090 | 17 ft | 20 kts | 215° |
| 2026-05-04 20:44 | 54.61843 | -5.87171 | 18 ft | 13 kts | 162° |
| 2026-05-04 20:44 | 54.61780 | -5.87046 | 17 ft | 14 kts | 124° |
| 2026-05-04 20:44 | 54.61747 | -5.86992 | 17 ft | 9 kts | 163° |
| 2026-05-04 20:45 | 54.61663 | -5.87064 | 17 ft | 11 kts | 216° |
| 2026-05-04 20:45 | 54.61607 | -5.87129 | 18 ft | 7 kts | 208° |
| 2026-05-04 20:45 | 54.61586 | -5.87104 | 18 ft | 4 kts | 116° |
| 2026-05-04 20:45 | 54.61571 | -5.87063 | 18 ft | 2 kts | 123° |
| 2026-05-04 20:46 | 54.61570 | -5.87060 | 18 ft | 0 kts | 123° |